createdAt,value
2023-04-18T00:00:52.439Z,239.87
2023-04-18T00:01:52.583Z,237.98
2023-04-18T00:02:52.617Z,238.89
2023-04-18T00:03:52.761Z,238.64
2023-04-18T00:04:52.735Z,238.93
2023-04-18T00:05:52.517Z,238.59
2023-04-18T00:06:52.555Z,239.44
2023-04-18T00:07:52.556Z,238.76
2023-04-18T00:08:52.626Z,238.58
2023-04-18T00:09:52.593Z,238.89
2023-04-18T00:10:52.605Z,237.46
2023-04-18T00:11:52.641Z,238.87
2023-04-18T00:12:52.652Z,238.15
2023-04-18T00:13:52.666Z,237.67
2023-04-18T00:14:52.682Z,238.12
2023-04-18T00:15:52.703Z,238.31
2023-04-18T00:16:52.871Z,237.71
2023-04-18T00:17:52.792Z,238.35
2023-04-18T00:18:52.805Z,237.22
2023-04-18T00:19:52.787Z,236.02
2023-04-18T00:20:52.807Z,238.60
2023-04-18T00:21:52.815Z,237.68
2023-04-18T00:22:52.834Z,238.71
2023-04-18T00:23:52.872Z,238.71
2023-04-18T00:24:52.878Z,238.80
2023-04-18T00:25:52.890Z,237.89
2023-04-18T00:26:52.899Z,238.78
2023-04-18T00:27:52.924Z,238.73
2023-04-18T00:28:52.947Z,239.17
2023-04-18T00:29:52.991Z,238.65
2023-04-18T00:30:53.034Z,238.85
2023-04-18T00:31:53.025Z,239.37
2023-04-18T00:32:53.093Z,238.02
2023-04-18T00:33:53.072Z,238.79
2023-04-18T00:34:53.078Z,238.76
2023-04-18T00:35:53.108Z,237.45
2023-04-18T00:36:53.160Z,239.06
2023-04-18T00:37:53.193Z,237.19
2023-04-18T00:38:53.215Z,238.38
2023-04-18T00:39:53.250Z,238.50
2023-04-18T00:40:53.253Z,238.65
2023-04-18T00:41:53.282Z,238.97
2023-04-18T00:42:53.270Z,239.65
2023-04-18T00:43:53.456Z,238.76
2023-04-18T00:44:53.326Z,238.91
2023-04-18T00:45:53.393Z,236.25
2023-04-18T00:46:53.346Z,237.14
2023-04-18T00:47:53.391Z,238.84
2023-04-18T00:48:53.357Z,239.06
2023-04-18T00:49:53.383Z,238.25
2023-04-18T00:50:53.401Z,236.06
2023-04-18T00:51:53.416Z,238.31
2023-04-18T00:52:53.438Z,238.38
2023-04-18T00:53:53.460Z,237.05
2023-04-18T00:54:53.456Z,237.42
2023-04-18T00:55:53.472Z,236.07
2023-04-18T00:56:53.485Z,235.46
2023-04-18T00:57:53.519Z,237.74
2023-04-18T00:58:53.511Z,237.04
2023-04-18T00:59:53.540Z,237.07
2023-04-18T01:00:53.574Z,238.05
2023-04-18T01:01:53.769Z,238.52
2023-04-18T01:02:53.671Z,235.66
2023-04-18T01:03:53.669Z,237.70
2023-04-18T01:04:53.601Z,236.75
2023-04-18T01:05:53.607Z,236.79
2023-04-18T01:06:53.649Z,236.03
2023-04-18T01:07:53.643Z,238.03
2023-04-18T01:08:53.683Z,236.85
2023-04-18T01:09:53.683Z,237.08
2023-04-18T01:10:53.719Z,236.14
2023-04-18T01:11:53.727Z,237.36
2023-04-18T01:12:53.757Z,237.73
2023-04-18T01:13:53.754Z,236.37
2023-04-18T01:14:53.790Z,236.62
2023-04-18T01:15:53.853Z,237.26
2023-04-18T01:16:53.828Z,236.64
2023-04-18T01:17:53.850Z,238.39
2023-04-18T01:18:53.842Z,236.86
2023-04-18T01:19:53.874Z,237.90
2023-04-18T01:20:53.925Z,237.73
2023-04-18T01:21:53.885Z,237.62
2023-04-18T01:22:53.911Z,236.93
2023-04-18T01:23:53.928Z,236.19
2023-04-18T01:24:53.945Z,237.86
2023-04-18T01:25:53.952Z,237.44
2023-04-18T01:26:53.974Z,234.73
2023-04-18T01:27:53.987Z,235.57
2023-04-18T01:28:53.998Z,238.04
2023-04-18T01:29:54.037Z,237.38
2023-04-18T01:30:54.063Z,236.61
2023-04-18T01:31:54.056Z,237.18
2023-04-18T01:32:54.136Z,237.23
2023-04-18T01:33:54.100Z,236.93
2023-04-18T01:34:54.107Z,235.69
2023-04-18T01:35:54.135Z,235.35
2023-04-18T01:36:54.144Z,234.32
2023-04-18T01:37:54.169Z,236.50
2023-04-18T01:38:54.187Z,235.66
2023-04-18T01:39:54.222Z,237.14
2023-04-18T01:40:54.223Z,234.96
2023-04-18T01:41:54.270Z,236.90
2023-04-18T01:42:54.281Z,233.90
2023-04-18T01:43:54.287Z,236.82
2023-04-18T01:44:54.291Z,236.54
2023-04-18T01:45:54.321Z,235.84
2023-04-18T01:46:54.379Z,235.42
2023-04-18T01:47:54.384Z,235.55
2023-04-18T01:48:54.360Z,236.15
2023-04-18T01:49:54.420Z,237.09
2023-04-18T01:50:54.432Z,236.00
2023-04-18T01:51:54.412Z,235.24
2023-04-18T01:52:54.429Z,236.90
2023-04-18T01:53:54.457Z,236.47
2023-04-18T01:54:54.448Z,236.52
2023-04-18T01:55:54.474Z,236.24
2023-04-18T01:56:54.481Z,237.10
2023-04-18T01:57:54.523Z,237.20
2023-04-18T01:58:54.517Z,237.57
2023-04-18T01:59:54.526Z,237.05
2023-04-18T02:00:54.611Z,235.42
2023-04-18T02:01:54.687Z,235.46
2023-04-18T02:02:54.660Z,235.92
2023-04-18T02:03:54.696Z,236.00
2023-04-18T02:04:54.593Z,235.61
2023-04-18T02:05:54.636Z,235.49
2023-04-18T02:06:54.633Z,235.68
2023-04-18T02:07:54.642Z,235.52
2023-04-18T02:08:54.663Z,235.76
2023-04-18T02:09:54.667Z,235.42
2023-04-18T02:10:54.674Z,235.29
2023-04-18T02:11:54.692Z,234.83
2023-04-18T02:12:54.721Z,234.90
2023-04-18T02:13:54.759Z,234.97
2023-04-18T02:14:54.727Z,234.90
2023-04-18T02:15:54.753Z,234.04
2023-04-18T02:16:54.765Z,234.93
2023-04-18T02:17:54.866Z,235.16
2023-04-18T02:18:54.803Z,234.24
2023-04-18T02:19:54.800Z,235.63
2023-04-18T02:20:54.792Z,235.85
2023-04-18T02:21:54.811Z,234.76
2023-04-18T02:22:54.824Z,235.59
2023-04-18T02:23:54.829Z,234.81
2023-04-18T02:24:54.831Z,233.71
2023-04-18T02:25:54.869Z,234.86
2023-04-18T02:26:54.873Z,235.14
2023-04-18T02:27:54.904Z,234.22
2023-04-18T02:28:54.951Z,234.96
2023-04-18T02:29:54.942Z,234.80
2023-04-18T02:30:54.991Z,233.44
2023-04-18T02:31:55.023Z,235.26
2023-04-18T02:32:55.061Z,234.79
2023-04-18T02:33:55.041Z,234.93
2023-04-18T02:34:55.057Z,234.94
2023-04-18T02:35:55.054Z,235.36
2023-04-18T02:36:55.068Z,235.87
2023-04-18T02:37:55.094Z,235.31
2023-04-18T02:38:55.112Z,235.59
2023-04-18T02:39:55.136Z,235.24
2023-04-18T02:40:55.132Z,235.06
2023-04-18T02:41:55.135Z,234.94
2023-04-18T02:42:55.137Z,234.60
2023-04-18T02:43:55.168Z,234.07
2023-04-18T02:44:55.170Z,234.90
2023-04-18T02:45:55.192Z,234.13
2023-04-18T02:46:55.184Z,233.30
2023-04-18T02:47:56.671Z,233.35
2023-04-18T02:48:55.210Z,234.65
2023-04-18T02:49:55.216Z,234.66
2023-04-18T02:50:55.249Z,235.17
2023-04-18T02:51:55.218Z,234.37
2023-04-18T02:52:55.224Z,234.18
2023-04-18T02:53:55.251Z,234.20
2023-04-18T02:54:55.252Z,234.61
2023-04-18T02:55:55.258Z,234.20
2023-04-18T02:56:55.333Z,235.09
2023-04-18T02:57:55.294Z,233.52
2023-04-18T02:58:55.322Z,233.55
2023-04-18T02:59:55.355Z,230.12
2023-04-18T03:00:55.388Z,225.57
2023-04-18T03:01:55.447Z,223.74
2023-04-18T03:02:55.522Z,220.22
2023-04-18T03:03:55.441Z,212.02
2023-04-18T03:04:55.458Z,204.84
2023-04-18T03:05:55.472Z,196.82
2023-04-18T03:06:55.485Z,190.47
2023-04-18T03:07:55.522Z,183.42
2023-04-18T03:08:55.544Z,176.98
2023-04-18T03:09:55.592Z,170.89
2023-04-18T03:10:56.323Z,163.59
2023-04-18T03:11:55.669Z,157.63
2023-04-18T03:12:55.720Z,151.63
2023-04-18T03:13:55.762Z,147.00
2023-04-18T03:14:55.812Z,142.31
2023-04-18T03:15:55.846Z,138.34
2023-04-18T03:16:55.936Z,134.75
2023-04-18T03:17:55.957Z,132.29
2023-04-18T03:18:56.012Z,127.69
2023-04-18T03:19:56.065Z,124.15
2023-04-18T03:20:56.124Z,122.03
2023-04-18T03:21:56.184Z,115.80
2023-04-18T03:22:56.228Z,114.28
2023-04-18T03:23:56.298Z,111.83
2023-04-18T03:24:56.364Z,108.95
2023-04-18T03:25:56.416Z,105.62
2023-04-18T03:26:56.529Z,102.61
2023-04-18T03:27:56.535Z,101.22
2023-04-18T03:28:56.711Z,97.36
2023-04-18T03:29:56.672Z,94.17
2023-04-18T03:30:56.810Z,90.50
2023-04-18T03:31:56.810Z,88.71
2023-04-18T03:32:56.925Z,87.39
2023-04-18T03:33:56.932Z,85.32
2023-04-18T03:34:57.003Z,82.01
2023-04-18T03:35:57.177Z,79.55
2023-04-18T03:36:57.164Z,77.80
2023-04-18T03:37:57.247Z,76.03
2023-04-18T03:38:57.324Z,73.58
2023-04-18T03:39:57.397Z,73.33
2023-04-18T03:40:57.463Z,74.08
2023-04-18T03:41:57.589Z,69.79
2023-04-18T03:42:57.614Z,68.37
2023-04-18T03:43:57.705Z,68.36
2023-04-18T03:44:57.827Z,64.85
2023-04-18T03:45:57.892Z,64.75
2023-04-18T03:46:57.964Z,64.36
2023-04-18T03:47:58.166Z,62.35
2023-04-18T03:48:58.109Z,63.15
2023-04-18T03:49:58.195Z,58.32
2023-04-18T03:50:58.251Z,56.56
2023-04-18T03:51:58.327Z,55.22
2023-04-18T03:52:58.380Z,54.57
2023-04-18T03:53:58.439Z,50.66
2023-04-18T03:54:58.528Z,52.07
2023-04-18T03:55:58.621Z,50.34
2023-04-18T03:56:58.701Z,45.74
2023-04-18T03:57:58.783Z,41.56
2023-04-18T03:58:58.874Z,41.69
2023-04-18T03:59:58.951Z,37.98
2023-04-18T04:00:59.018Z,36.99
2023-04-18T04:01:59.225Z,34.48
2023-04-18T04:02:59.281Z,33.55
2023-04-18T04:03:59.406Z,30.68
2023-04-18T04:04:59.393Z,27.63
2023-04-18T04:05:59.399Z,28.04
2023-04-18T04:06:59.450Z,26.12
2023-04-18T04:07:59.521Z,25.39
2023-04-18T04:08:59.612Z,25.43
2023-04-18T04:09:59.675Z,25.03
2023-04-18T04:10:59.765Z,26.48
2023-04-18T04:11:59.821Z,26.85
2023-04-18T04:12:59.871Z,26.46
2023-04-18T04:13:59.937Z,25.51
2023-04-18T04:15:00.006Z,28.43
2023-04-18T04:16:00.145Z,28.07
2023-04-18T04:17:00.157Z,28.40
2023-04-18T04:18:00.254Z,29.68
2023-04-18T04:19:00.271Z,27.02
2023-04-18T04:20:00.346Z,25.48
2023-04-18T04:21:00.405Z,27.53
2023-04-18T04:22:00.466Z,26.49
2023-04-18T04:23:00.525Z,26.22
2023-04-18T04:24:00.599Z,27.23
2023-04-18T04:25:00.643Z,26.53
2023-04-18T04:26:00.712Z,25.00
2023-04-18T04:27:00.779Z,26.65
2023-04-18T04:28:00.858Z,25.50
2023-04-18T04:29:00.924Z,26.55
2023-04-18T04:30:00.989Z,26.66
2023-04-18T04:31:01.038Z,27.25
2023-04-18T04:32:01.171Z,25.33
2023-04-18T04:33:01.190Z,26.07
2023-04-18T04:34:01.197Z,28.00
2023-04-18T04:35:01.242Z,28.86
2023-04-18T04:36:01.351Z,32.60
2023-04-18T04:37:01.437Z,31.46
2023-04-18T04:38:01.473Z,31.42
2023-04-18T04:39:01.622Z,31.52
2023-04-18T04:40:01.590Z,33.09
2023-04-18T04:41:01.653Z,32.33
2023-04-18T04:42:01.720Z,33.90
2023-04-18T04:43:01.845Z,33.31
2023-04-18T04:44:01.958Z,35.36
2023-04-18T04:45:01.990Z,35.86
2023-04-18T04:46:02.052Z,36.86
2023-04-18T04:47:02.104Z,36.13
2023-04-18T04:48:02.285Z,38.35
2023-04-18T04:49:02.186Z,39.26
2023-04-18T04:50:02.264Z,40.90
2023-04-18T04:51:02.305Z,43.33
2023-04-18T04:52:02.361Z,43.81
2023-04-18T04:53:02.393Z,45.74
2023-04-18T04:54:02.422Z,46.35
2023-04-18T04:55:02.468Z,48.53
2023-04-18T04:56:02.514Z,50.77
2023-04-18T04:57:02.566Z,48.60
2023-04-18T04:58:02.642Z,49.12
2023-04-18T04:59:02.705Z,50.38
2023-04-18T05:00:02.768Z,50.56
2023-04-18T05:01:02.935Z,48.70
2023-04-18T05:02:03.063Z,48.00
2023-04-18T05:03:03.119Z,47.76
2023-04-18T05:04:03.019Z,47.02
2023-04-18T05:05:03.007Z,44.42
2023-04-18T05:06:03.026Z,44.64
2023-04-18T05:07:03.063Z,46.02
2023-04-18T05:08:03.116Z,44.63
2023-04-18T05:09:03.140Z,43.73
2023-04-18T05:10:03.177Z,40.83
2023-04-18T05:11:03.224Z,43.16
2023-04-18T05:12:03.237Z,41.86
2023-04-18T05:13:03.268Z,41.13
2023-04-18T05:14:03.307Z,42.40
2023-04-18T05:15:03.345Z,38.81
2023-04-18T05:16:03.373Z,41.41
2023-04-18T05:17:03.458Z,42.05
2023-04-18T05:18:03.462Z,40.09
2023-04-18T05:19:03.436Z,39.02
2023-04-18T05:20:03.469Z,42.49
2023-04-18T05:21:03.508Z,41.74
2023-04-18T05:22:03.531Z,40.43
2023-04-18T05:23:03.563Z,37.75
2023-04-18T05:24:03.575Z,36.57
2023-04-18T05:25:03.597Z,34.60
2023-04-18T05:26:03.629Z,31.98
2023-04-18T05:27:03.690Z,27.60
2023-04-18T05:28:03.719Z,27.86
2023-04-18T05:29:03.755Z,27.35
2023-04-18T05:30:03.796Z,21.33
2023-04-18T05:31:03.851Z,20.12
2023-04-18T05:32:03.797Z,15.61
2023-04-18T05:33:03.897Z,15.52
2023-04-18T05:34:03.868Z,29.12
2023-04-18T05:35:03.888Z,42.03
2023-04-18T05:36:03.948Z,56.40
2023-04-18T05:37:03.936Z,70.51
2023-04-18T05:38:03.979Z,85.31
2023-04-18T05:39:03.995Z,96.52
2023-04-18T05:40:04.011Z,107.45
2023-04-18T05:41:04.044Z,116.58
2023-04-18T05:42:04.051Z,130.54
2023-04-18T05:43:04.070Z,142.93
2023-04-18T05:44:16.916Z,153.40
2023-04-18T05:45:05.129Z,153.85
2023-04-18T05:46:04.187Z,157.16
2023-04-18T05:47:04.372Z,164.53
2023-04-18T05:48:04.294Z,181.23
2023-04-18T05:49:04.182Z,213.49
2023-04-18T05:50:04.195Z,226.25
2023-04-18T05:51:04.220Z,235.65
2023-04-18T05:52:04.223Z,239.56
2023-04-18T05:53:04.236Z,221.55
2023-04-18T05:54:04.323Z,142.62
2023-04-18T05:55:04.339Z,84.68
2023-04-18T05:56:04.410Z,38.96
2023-04-18T05:57:04.916Z,13.75
2023-04-18T05:58:04.472Z,0.00
2023-04-18T05:59:04.478Z,0.00
2023-04-18T06:00:04.493Z,0.00
2023-04-18T06:01:04.513Z,0.00
2023-04-18T06:02:04.583Z,0.00
2023-04-18T06:03:04.819Z,0.00
2023-04-18T06:04:04.737Z,0.00
2023-04-18T06:05:04.752Z,0.00
2023-04-18T06:06:04.645Z,0.00
2023-04-18T06:07:04.644Z,2.24
2023-04-18T06:08:04.675Z,17.01
2023-04-18T06:09:04.707Z,39.94
2023-04-18T06:10:04.706Z,52.59
2023-04-18T06:11:04.722Z,65.11
2023-04-18T06:12:04.739Z,72.38
2023-04-18T06:13:04.761Z,63.56
2023-04-18T06:14:04.774Z,54.77
2023-04-18T06:15:04.789Z,39.92
2023-04-18T06:16:04.832Z,33.16
2023-04-18T06:17:04.815Z,32.58
2023-04-18T06:18:04.899Z,26.76
2023-04-18T06:19:04.836Z,25.00
2023-04-18T06:20:04.861Z,27.92
2023-04-18T06:21:04.865Z,29.34
2023-04-18T06:22:04.922Z,25.85
2023-04-18T06:23:04.979Z,27.47
2023-04-18T06:24:05.052Z,26.27
2023-04-18T06:25:05.076Z,26.20
2023-04-18T06:26:05.122Z,26.94
2023-04-18T06:27:05.088Z,28.82
2023-04-18T06:28:05.128Z,35.03
2023-04-18T06:29:05.132Z,37.49
2023-04-18T06:30:05.144Z,35.50
2023-04-18T06:31:05.162Z,40.43
2023-04-18T06:32:05.217Z,42.89
2023-04-18T06:33:05.291Z,45.56
2023-04-18T06:34:05.264Z,44.03
2023-04-18T06:35:05.352Z,43.46
2023-04-18T06:36:05.427Z,54.21
2023-04-18T06:37:05.508Z,71.77
2023-04-18T06:38:05.509Z,72.26
2023-04-18T06:39:05.530Z,75.77
2023-04-18T06:40:05.553Z,84.34
2023-04-18T06:41:05.688Z,99.90
2023-04-18T06:42:05.590Z,124.79
2023-04-18T06:43:05.604Z,73.89
2023-04-18T06:44:05.623Z,83.14
2023-04-18T06:45:05.631Z,103.42
2023-04-18T06:46:05.699Z,132.67
2023-04-18T06:47:05.677Z,149.72
2023-04-18T06:48:05.718Z,121.73
2023-04-18T06:49:05.739Z,99.33
2023-04-18T06:50:05.746Z,85.18
2023-04-18T06:51:05.775Z,80.25
2023-04-18T06:52:05.781Z,70.96
2023-04-18T06:53:05.809Z,74.71
2023-04-18T06:54:05.887Z,68.89
2023-04-18T06:55:05.852Z,60.58
2023-04-18T06:56:05.920Z,47.08
2023-04-18T06:57:05.937Z,34.12
2023-04-18T06:58:05.914Z,42.38
2023-04-18T06:59:05.946Z,38.97
2023-04-18T07:00:05.951Z,40.10
2023-04-18T07:01:06.016Z,37.47
2023-04-18T07:02:05.995Z,31.19
2023-04-18T07:03:08.022Z,25.00
2023-04-18T07:04:06.135Z,24.00
2023-04-18T07:05:06.052Z,25.11
2023-04-18T07:06:06.106Z,18.77
2023-04-18T07:07:06.086Z,26.81
2023-04-18T07:08:06.093Z,25.00
2023-04-18T07:09:06.113Z,24.47
2023-04-18T07:10:06.131Z,24.47
2023-04-18T07:11:06.148Z,24.88
2023-04-18T07:12:06.178Z,24.46
2023-04-18T07:13:06.185Z,26.90
2023-04-18T07:14:06.317Z,27.40
2023-04-18T07:15:06.237Z,25.00
2023-04-18T07:16:06.228Z,26.63
2023-04-18T07:17:06.448Z,25.29
2023-04-18T07:18:06.339Z,24.96
2023-04-18T07:19:06.298Z,24.44
2023-04-18T07:20:06.322Z,28.73
2023-04-18T07:21:06.351Z,24.98
2023-04-18T07:22:06.400Z,24.19
2023-04-18T07:23:06.374Z,29.39
2023-04-18T07:24:06.411Z,29.79
2023-04-18T07:25:06.410Z,26.33
2023-04-18T07:26:06.448Z,25.25
2023-04-18T07:27:06.480Z,25.00
2023-04-18T07:28:06.476Z,25.07
2023-04-18T07:29:06.512Z,25.41
2023-04-18T07:30:06.515Z,27.51
2023-04-18T07:31:06.643Z,23.37
2023-04-18T07:32:08.388Z,16.42
2023-04-18T07:33:06.556Z,26.68
2023-04-18T07:34:06.579Z,26.85
2023-04-18T07:35:06.635Z,27.71
2023-04-18T07:36:06.624Z,34.54
2023-04-18T07:37:06.637Z,54.71
2023-04-18T07:38:06.635Z,66.93
2023-04-18T07:39:06.673Z,84.89
2023-04-18T07:40:06.669Z,101.71
2023-04-18T07:41:06.674Z,112.77
2023-04-18T07:42:06.688Z,129.80
2023-04-18T07:43:06.716Z,147.03
2023-04-18T07:44:06.753Z,168.47
2023-04-18T07:45:06.900Z,183.06
2023-04-18T07:46:06.763Z,188.33
2023-04-18T07:47:06.810Z,193.91
2023-04-18T07:48:06.919Z,200.56
2023-04-18T07:49:06.947Z,205.52
2023-04-18T07:50:07.041Z,209.12
2023-04-18T07:51:07.101Z,213.64
2023-04-18T07:52:07.179Z,216.96
2023-04-18T07:53:07.244Z,220.50
2023-04-18T07:54:07.323Z,223.38
2023-04-18T07:55:07.381Z,225.77
2023-04-18T07:56:07.439Z,227.61
2023-04-18T07:57:07.488Z,228.60
2023-04-18T07:58:07.516Z,228.66
2023-04-18T07:59:07.525Z,228.89
2023-04-18T08:00:08.105Z,229.43
2023-04-18T08:01:07.528Z,230.95
2023-04-18T08:02:07.559Z,233.81
2023-04-18T08:03:07.896Z,233.89
2023-04-18T08:04:07.826Z,234.02
2023-04-18T08:05:07.647Z,234.39
2023-04-18T08:06:07.613Z,234.86
2023-04-18T08:07:07.638Z,235.98
2023-04-18T08:08:07.730Z,237.40
2023-04-18T08:09:07.697Z,238.02
2023-04-18T08:10:07.666Z,238.57
2023-04-18T08:11:07.680Z,237.05
2023-04-18T08:12:07.720Z,236.34
2023-04-18T08:13:07.705Z,235.67
2023-04-18T08:14:07.720Z,232.21
2023-04-18T08:15:07.738Z,232.21
2023-04-18T08:16:07.775Z,231.05
2023-04-18T08:17:07.841Z,229.19
2023-04-18T08:18:07.748Z,228.74
2023-04-18T08:19:07.770Z,226.61
2023-04-18T08:20:07.770Z,225.08
2023-04-18T08:21:07.795Z,223.43
2023-04-18T08:22:07.799Z,221.86
2023-04-18T08:23:10.377Z,219.62
2023-04-18T08:24:07.810Z,219.69
2023-04-18T08:25:07.836Z,220.03
2023-04-18T08:26:07.832Z,221.96
2023-04-18T08:27:07.841Z,225.18
2023-04-18T08:28:07.835Z,228.01
2023-04-18T08:29:07.862Z,227.35
2023-04-18T08:30:07.861Z,222.08
2023-04-18T08:31:07.861Z,223.43
2023-04-18T08:32:07.990Z,224.69
2023-04-18T08:33:07.911Z,226.54
2023-04-18T08:34:07.865Z,220.11
2023-04-18T08:35:07.872Z,221.31
2023-04-18T08:36:07.880Z,220.15
2023-04-18T08:37:07.875Z,217.65
2023-04-18T08:38:07.888Z,211.53
2023-04-18T08:39:07.930Z,208.43
2023-04-18T08:40:07.899Z,203.71
2023-04-18T08:41:07.908Z,198.22
2023-04-18T08:42:07.915Z,195.79
2023-04-18T08:43:07.932Z,193.35
2023-04-18T08:44:07.952Z,190.69
2023-04-18T08:45:07.929Z,188.42
2023-04-18T08:46:08.036Z,185.15
2023-04-18T08:47:07.926Z,184.39
2023-04-18T08:48:07.973Z,181.29
2023-04-18T08:49:09.177Z,176.06
2023-04-18T08:50:07.927Z,169.59
2023-04-18T08:51:07.928Z,179.09
2023-04-18T08:52:07.964Z,185.17
2023-04-18T08:53:07.957Z,187.96
2023-04-18T08:54:07.936Z,189.84
2023-04-18T08:55:07.968Z,192.00
2023-04-18T08:56:07.980Z,191.22
2023-04-18T08:57:07.978Z,191.14
2023-04-18T08:58:08.021Z,193.04
2023-04-18T08:59:07.972Z,193.82
2023-04-18T09:00:07.979Z,193.85
2023-04-18T09:01:08.030Z,193.98
2023-04-18T09:02:08.059Z,194.53
2023-04-18T09:03:08.196Z,195.20
2023-04-18T09:04:08.060Z,197.75
2023-04-18T09:05:08.142Z,200.10
2023-04-18T09:06:08.019Z,200.64
2023-04-18T09:07:08.022Z,203.76
2023-04-18T09:08:08.027Z,201.42
2023-04-18T09:09:08.040Z,203.90
2023-04-18T09:10:08.033Z,202.39
2023-04-18T09:11:08.030Z,202.60
2023-04-18T09:12:08.052Z,199.41
2023-04-18T09:13:08.071Z,200.89
2023-04-18T09:14:08.075Z,199.78
2023-04-18T09:15:08.075Z,199.74
2023-04-18T09:16:08.091Z,198.58
2023-04-18T09:17:08.128Z,197.62
2023-04-18T09:18:08.130Z,199.02
2023-04-18T09:19:08.127Z,199.43
2023-04-18T09:20:08.151Z,201.19
2023-04-18T09:21:08.182Z,199.61
2023-04-18T09:22:08.241Z,198.84
2023-04-18T09:23:08.249Z,202.43
2023-04-18T09:24:08.234Z,203.47
2023-04-18T09:25:08.308Z,208.39
2023-04-18T09:26:08.319Z,209.20
2023-04-18T09:27:08.365Z,210.67
2023-04-18T09:28:08.435Z,213.44
2023-04-18T09:29:08.460Z,215.48
2023-04-18T09:30:08.499Z,218.85
2023-04-18T09:31:08.648Z,221.63
2023-04-18T09:32:08.582Z,221.73
2023-04-18T09:33:08.616Z,224.55
2023-04-18T09:34:08.642Z,226.62
2023-04-18T09:35:08.633Z,228.28
2023-04-18T09:36:08.667Z,231.76
2023-04-18T09:37:08.815Z,232.76
2023-04-18T09:38:08.765Z,233.36
2023-04-18T09:39:08.731Z,233.99
2023-04-18T09:40:08.764Z,238.35
2023-04-18T09:41:08.865Z,237.64
2023-04-18T09:42:08.839Z,240.41
2023-04-18T09:43:08.896Z,238.48
2023-04-18T09:44:12.389Z,236.83
2023-04-18T09:45:09.952Z,234.07
2023-04-18T09:46:08.999Z,236.87
2023-04-18T09:47:08.910Z,237.35
2023-04-18T09:48:08.957Z,239.46
2023-04-18T09:49:10.930Z,242.90
2023-04-18T09:50:08.942Z,237.38
2023-04-18T09:51:08.914Z,239.01
2023-04-18T09:52:08.926Z,237.39
2023-04-18T09:53:09.132Z,239.63
2023-04-18T09:54:08.927Z,244.06
2023-04-18T09:55:08.933Z,237.68
2023-04-18T09:56:08.927Z,240.25
2023-04-18T09:57:08.942Z,245.06
2023-04-18T09:58:08.941Z,253.41
2023-04-18T09:59:08.983Z,262.19
2023-04-18T10:00:08.947Z,253.74
2023-04-18T10:01:08.986Z,250.00
2023-04-18T10:02:09.073Z,249.18
2023-04-18T10:03:09.040Z,250.01
2023-04-18T10:04:08.997Z,250.00
2023-04-18T10:05:08.996Z,247.53
2023-04-18T10:06:08.986Z,246.34
2023-04-18T10:07:09.048Z,243.95
2023-04-18T10:08:09.094Z,241.85
2023-04-18T10:09:09.140Z,239.35
2023-04-18T10:10:09.185Z,235.53
2023-04-18T10:11:09.257Z,230.39
2023-04-18T10:12:09.290Z,227.22
2023-04-18T10:13:09.342Z,224.77
2023-04-18T10:14:09.426Z,220.26
2023-04-18T10:15:09.447Z,214.70
2023-04-18T10:16:09.472Z,211.71
2023-04-18T10:17:09.470Z,209.04
2023-04-18T10:18:09.484Z,206.43
2023-04-18T10:19:09.474Z,203.48
2023-04-18T10:20:09.478Z,200.12
2023-04-18T10:21:09.549Z,195.88
2023-04-18T10:22:09.489Z,194.26
2023-04-18T10:23:09.482Z,191.41
2023-04-18T10:24:09.481Z,186.08
2023-04-18T10:25:09.493Z,185.46
2023-04-18T10:26:09.487Z,184.84
2023-04-18T10:27:09.522Z,180.61
2023-04-18T10:28:09.575Z,178.41
2023-04-18T10:29:09.608Z,178.07
2023-04-18T10:30:09.671Z,177.23
2023-04-18T10:31:09.750Z,175.11
2023-04-18T10:32:09.770Z,177.16
2023-04-18T10:33:18.389Z,176.85
2023-04-18T10:34:10.853Z,175.43
2023-04-18T10:35:09.844Z,175.79
2023-04-18T10:36:09.896Z,173.68
2023-04-18T10:37:09.869Z,174.67
2023-04-18T10:38:09.919Z,178.28
2023-04-18T10:39:09.873Z,180.35
2023-04-18T10:40:09.875Z,181.18
2023-04-18T10:41:09.950Z,178.07
2023-04-18T10:42:09.891Z,183.38
2023-04-18T10:43:09.892Z,186.87
2023-04-18T10:44:09.880Z,194.63
2023-04-18T10:45:09.897Z,195.36
2023-04-18T10:46:20.210Z,195.42
2023-04-18T10:47:10.955Z,195.55
2023-04-18T10:48:09.966Z,195.78
2023-04-18T10:49:09.905Z,193.72
2023-04-18T10:50:09.951Z,187.07
2023-04-18T10:51:09.919Z,179.64
2023-04-18T10:52:11.692Z,174.15
2023-04-18T10:53:09.931Z,168.89
2023-04-18T10:54:09.931Z,169.31
2023-04-18T10:55:09.932Z,169.84
2023-04-18T10:56:09.948Z,169.31
2023-04-18T10:57:09.938Z,167.10
2023-04-18T10:58:09.936Z,170.00
2023-04-18T10:59:09.955Z,170.76
2023-04-18T11:00:10.034Z,168.02
2023-04-18T11:01:10.009Z,166.02
2023-04-18T11:02:10.024Z,169.93
2023-04-18T11:03:10.217Z,169.68
2023-04-18T11:04:10.149Z,170.70
2023-04-18T11:05:09.957Z,170.39
2023-04-18T11:06:09.995Z,170.01
2023-04-18T11:07:09.947Z,170.68
2023-04-18T11:08:09.938Z,170.31
2023-04-18T11:09:09.937Z,170.41
2023-04-18T11:10:09.935Z,169.06
2023-04-18T11:11:09.926Z,172.05
2023-04-18T11:12:09.950Z,170.17
2023-04-18T11:13:10.080Z,170.12
2023-04-18T11:14:09.946Z,171.34
2023-04-18T11:15:09.947Z,171.25
2023-04-18T11:16:09.948Z,171.57
2023-04-18T11:17:09.928Z,172.88
2023-04-18T11:18:09.973Z,158.09
2023-04-18T11:19:09.925Z,159.74
2023-04-18T11:20:09.957Z,156.91
2023-04-18T11:21:09.948Z,140.87
2023-04-18T11:22:10.051Z,132.65
2023-04-18T11:23:09.952Z,124.56
2023-04-18T11:24:09.925Z,128.60
2023-04-18T11:25:09.964Z,132.24
2023-04-18T11:26:09.975Z,135.10
2023-04-18T11:27:09.960Z,144.90
2023-04-18T11:28:09.999Z,151.08
2023-04-18T11:29:10.090Z,151.18
2023-04-18T11:30:10.006Z,151.75
2023-04-18T11:31:10.000Z,152.99
2023-04-18T11:32:10.038Z,154.81
2023-04-18T11:33:10.021Z,151.29
2023-04-18T11:34:10.002Z,151.83
2023-04-18T11:35:10.009Z,153.86
2023-04-18T11:36:10.026Z,156.99
2023-04-18T11:37:10.022Z,158.22
2023-04-18T11:38:10.029Z,157.00
2023-04-18T11:39:10.009Z,155.94
2023-04-18T11:40:10.003Z,150.43
2023-04-18T11:41:10.017Z,150.45
2023-04-18T11:42:10.020Z,150.55
2023-04-18T11:43:10.022Z,150.82
2023-04-18T11:44:10.031Z,152.42
2023-04-18T11:45:10.025Z,156.16
2023-04-18T11:46:10.076Z,159.36
2023-04-18T11:47:10.047Z,156.77
2023-04-18T11:48:10.084Z,158.54
2023-04-18T11:49:10.048Z,156.48
2023-04-18T11:50:10.056Z,156.17
2023-04-18T11:51:10.056Z,151.95
2023-04-18T11:52:10.080Z,147.63
2023-04-18T11:53:10.069Z,147.52
2023-04-18T11:54:10.060Z,152.44
2023-04-18T11:55:10.063Z,150.88
2023-04-18T11:56:10.068Z,147.69
2023-04-18T11:57:10.065Z,147.27
2023-04-18T11:58:10.073Z,147.86
2023-04-18T11:59:10.070Z,144.49
2023-04-18T12:00:10.100Z,141.38
2023-04-18T12:01:10.136Z,140.13
2023-04-18T12:03:13.327Z,140.38
2023-04-18T12:04:10.380Z,140.42
2023-04-18T12:05:10.447Z,139.68
2023-04-18T12:06:10.294Z,134.41
2023-04-18T12:07:10.158Z,135.90
2023-04-18T12:08:10.164Z,135.31
2023-04-18T12:09:10.158Z,136.61
2023-04-18T12:10:10.157Z,133.88
2023-04-18T12:11:10.152Z,135.89
2023-04-18T12:12:10.152Z,137.71
2023-04-18T12:13:10.148Z,138.29
2023-04-18T12:14:10.141Z,134.32
2023-04-18T12:15:10.136Z,133.26
2023-04-18T12:16:10.177Z,131.34
2023-04-18T12:17:10.167Z,130.73
2023-04-18T12:18:10.154Z,129.64
2023-04-18T12:19:10.132Z,124.97
2023-04-18T12:20:10.208Z,124.47
2023-04-18T12:21:10.120Z,124.07
2023-04-18T12:22:10.183Z,124.14
2023-04-18T12:23:10.112Z,123.33
2023-04-18T12:24:10.110Z,123.83
2023-04-18T12:25:10.124Z,122.76
2023-04-18T12:26:10.108Z,122.05
2023-04-18T12:27:10.120Z,125.40
2023-04-18T12:28:10.097Z,130.10
2023-04-18T12:29:10.127Z,133.00
2023-04-18T12:30:10.129Z,135.88
2023-04-18T12:31:10.118Z,138.58
2023-04-18T12:32:10.111Z,141.04
2023-04-18T12:33:10.101Z,144.54
2023-04-18T12:34:10.106Z,148.27
2023-04-18T12:35:10.099Z,152.27
2023-04-18T12:36:10.128Z,156.06
2023-04-18T12:37:10.111Z,159.10
2023-04-18T12:38:10.098Z,162.65